createdAt,value
2022-11-14T00:00:35.741Z,5.20
2022-11-14T00:03:04.739Z,5.30
2022-11-14T00:05:32.931Z,5.30
2022-11-14T00:08:02.166Z,5.20
2022-11-14T00:10:30.313Z,5.30
2022-11-14T00:12:58.369Z,5.40
2022-11-14T00:15:28.055Z,5.50
2022-11-14T00:17:56.125Z,5.60
2022-11-14T00:20:24.215Z,5.60
2022-11-14T00:22:52.297Z,5.70
2022-11-14T00:25:20.430Z,5.70
2022-11-14T00:27:48.498Z,5.60
2022-11-14T00:30:16.706Z,5.60
2022-11-14T00:32:46.318Z,5.60
2022-11-14T00:35:14.400Z,5.60
2022-11-14T00:37:42.601Z,5.60
2022-11-14T00:40:11.048Z,5.50
2022-11-14T00:42:39.141Z,5.50
2022-11-14T00:45:07.683Z,5.60
2022-11-14T00:47:35.817Z,5.50
2022-11-14T00:50:05.991Z,5.40
2022-11-14T00:52:34.286Z,5.40
2022-11-14T00:55:02.441Z,5.40
2022-11-14T00:57:30.487Z,5.40
2022-11-14T01:00:01.491Z,5.30
2022-11-14T01:02:29.571Z,5.40
2022-11-14T01:04:57.698Z,5.30
2022-11-14T01:07:27.466Z,5.40
2022-11-14T01:09:55.526Z,5.40
2022-11-14T01:12:23.700Z,5.30
2022-11-14T01:14:51.759Z,5.30
2022-11-14T01:17:19.932Z,5.10
2022-11-14T01:19:47.994Z,5.00
2022-11-14T01:22:16.174Z,4.90
2022-11-14T01:24:45.916Z,4.80
2022-11-14T01:27:17.186Z,4.70
2022-11-14T01:29:45.226Z,4.60
2022-11-14T01:32:13.435Z,4.50
2022-11-14T01:34:50.269Z,4.50
2022-11-14T01:37:18.342Z,4.40
2022-11-14T01:39:47.915Z,4.40
2022-11-14T01:42:17.599Z,4.30
2022-11-14T01:44:47.536Z,4.30
2022-11-14T01:47:18.725Z,4.20
2022-11-14T01:49:48.473Z,4.10
2022-11-14T01:52:18.536Z,4.00
2022-11-14T01:54:49.506Z,3.90
2022-11-14T01:57:19.578Z,3.90
2022-11-14T01:59:50.856Z,3.80
2022-11-14T02:02:20.100Z,3.70
2022-11-14T02:04:50.400Z,3.80
2022-11-14T02:07:19.073Z,3.70
2022-11-14T02:09:49.738Z,3.70
2022-11-14T02:12:20.149Z,3.70
2022-11-14T02:14:51.175Z,3.80
2022-11-14T02:17:29.631Z,3.80
2022-11-14T02:20:05.847Z,3.80
2022-11-14T02:22:34.267Z,3.70
2022-11-14T02:25:02.572Z,3.80
2022-11-14T02:27:31.233Z,3.80
2022-11-14T02:30:04.156Z,3.80
2022-11-14T02:32:45.051Z,3.80
2022-11-14T02:35:21.872Z,3.80
2022-11-14T02:37:49.996Z,3.70
2022-11-14T02:40:18.541Z,3.70
2022-11-14T02:42:46.565Z,3.70
2022-11-14T02:45:14.780Z,3.70
2022-11-14T02:47:42.803Z,3.70
2022-11-14T02:50:11.072Z,3.70
2022-11-14T02:52:43.661Z,3.70
2022-11-14T02:55:12.106Z,3.80
2022-11-14T02:57:41.474Z,3.80
2022-11-14T03:00:14.954Z,3.80
2022-11-14T03:02:43.484Z,3.80
2022-11-14T03:05:11.640Z,3.80
2022-11-14T03:07:41.413Z,3.80
2022-11-14T03:10:10.021Z,3.80
2022-11-14T03:12:38.713Z,3.80
2022-11-14T03:15:07.708Z,3.80
2022-11-14T03:17:36.142Z,3.80
2022-11-14T03:20:06.153Z,3.80
2022-11-14T03:22:34.397Z,3.80
2022-11-14T03:25:04.396Z,3.80
2022-11-14T03:27:32.428Z,3.90
2022-11-14T03:30:00.838Z,3.90
2022-11-14T03:32:29.154Z,3.90
2022-11-14T03:34:57.271Z,3.90
2022-11-14T03:37:28.672Z,3.90
2022-11-14T03:39:56.755Z,4.00
2022-11-14T03:42:27.578Z,4.00
2022-11-14T03:44:55.628Z,4.00
2022-11-14T03:47:26.093Z,4.00
2022-11-14T03:49:54.157Z,4.00
2022-11-14T03:52:22.382Z,4.00
2022-11-14T03:54:53.314Z,4.10
2022-11-14T03:57:21.412Z,4.10
2022-11-14T03:59:51.125Z,4.10
2022-11-14T04:02:19.236Z,4.10
2022-11-14T04:04:47.349Z,4.10
2022-11-14T04:07:15.740Z,4.20
2022-11-14T04:09:45.029Z,4.20
2022-11-14T04:12:15.897Z,4.30
2022-11-14T04:14:44.336Z,4.30
2022-11-14T04:17:14.021Z,4.30
2022-11-14T04:19:42.072Z,4.40
2022-11-14T04:22:10.288Z,4.40
2022-11-14T04:24:38.466Z,4.40
2022-11-14T04:27:06.492Z,4.40
2022-11-14T04:29:34.731Z,4.40
2022-11-14T04:32:02.986Z,4.40
2022-11-14T04:34:32.527Z,4.40
2022-11-14T04:37:00.727Z,4.50
2022-11-14T04:39:28.897Z,4.50
2022-11-14T04:41:57.112Z,4.80
2022-11-14T04:44:25.147Z,4.50
2022-11-14T04:46:53.346Z,4.60
2022-11-14T04:49:21.579Z,4.60
2022-11-14T04:51:51.041Z,4.60
2022-11-14T04:54:19.220Z,4.60
2022-11-14T04:56:47.337Z,4.60
2022-11-14T04:59:20.527Z,4.60
2022-11-14T05:01:49.198Z,4.60
2022-11-14T05:04:17.465Z,4.60
2022-11-14T05:06:45.550Z,4.60
2022-11-14T05:09:15.145Z,4.70
2022-11-14T05:11:43.437Z,4.60
2022-11-14T05:14:11.539Z,4.60
2022-11-14T05:16:39.889Z,4.60
2022-11-14T05:19:07.905Z,4.60
2022-11-14T05:21:36.147Z,4.70
2022-11-14T05:24:04.268Z,4.60
2022-11-14T05:26:33.800Z,4.70
2022-11-14T05:29:02.016Z,4.70
2022-11-14T05:31:30.084Z,4.70
2022-11-14T05:33:58.273Z,4.70
2022-11-14T05:36:26.332Z,4.70
2022-11-14T05:38:54.995Z,4.70
2022-11-14T05:41:23.136Z,4.70
2022-11-14T05:43:52.829Z,4.80
2022-11-14T05:46:20.886Z,4.80
2022-11-14T05:48:49.032Z,4.80
2022-11-14T05:51:17.208Z,4.80
2022-11-14T05:53:47.597Z,4.80
2022-11-14T05:56:18.746Z,4.80
2022-11-14T05:58:46.816Z,4.80
2022-11-14T06:01:17.404Z,4.80
2022-11-14T06:03:46.601Z,4.80
2022-11-14T06:06:16.997Z,4.80
2022-11-14T06:08:45.095Z,4.80
2022-11-14T06:11:14.424Z,4.80
2022-11-14T06:13:42.968Z,4.80
2022-11-14T06:16:12.204Z,4.80
2022-11-14T06:18:41.794Z,4.80
2022-11-14T06:21:11.789Z,4.80
2022-11-14T06:23:40.290Z,4.80
2022-11-14T06:26:09.457Z,4.80
2022-11-14T06:28:37.548Z,4.80
2022-11-14T06:31:06.030Z,4.80
2022-11-14T06:33:35.621Z,4.80
2022-11-14T06:36:05.884Z,4.80
2022-11-14T06:38:34.925Z,4.70
2022-11-14T06:41:03.624Z,4.80
2022-11-14T06:43:33.633Z,4.80
2022-11-14T06:46:04.620Z,4.80
2022-11-14T06:48:33.035Z,4.80
2022-11-14T06:51:01.863Z,4.80
2022-11-14T06:53:34.768Z,4.80
2022-11-14T06:56:03.543Z,4.80
2022-11-14T06:58:33.158Z,4.80
2022-11-14T07:01:04.465Z,4.80
2022-11-14T07:03:32.563Z,4.80
2022-11-14T07:06:00.756Z,4.80
2022-11-14T07:08:28.857Z,4.80
2022-11-14T07:11:03.950Z,4.90
2022-11-14T07:13:32.692Z,4.90
2022-11-14T07:16:01.335Z,4.90
2022-11-14T07:18:31.445Z,4.90
2022-11-14T07:21:00.543Z,4.90
2022-11-14T07:23:29.085Z,4.80
2022-11-14T07:25:57.181Z,4.80
2022-11-14T07:28:28.211Z,4.80
2022-11-14T07:30:56.518Z,4.90
2022-11-14T07:33:24.552Z,4.90
2022-11-14T07:35:52.741Z,4.90
2022-11-14T07:38:20.867Z,4.90
2022-11-14T07:40:59.310Z,4.80
2022-11-14T07:43:30.129Z,4.90
2022-11-14T07:46:00.279Z,4.90
2022-11-14T07:48:31.293Z,4.90
2022-11-14T07:51:00.482Z,4.90
2022-11-14T07:53:29.090Z,4.90
2022-11-14T07:55:57.413Z,4.90
2022-11-14T07:58:26.270Z,4.90
2022-11-14T08:00:56.064Z,5.00
2022-11-14T08:03:24.143Z,4.90
2022-11-14T08:05:52.425Z,5.00
2022-11-14T08:08:23.769Z,5.00
2022-11-14T08:10:51.847Z,5.00
2022-11-14T08:13:35.360Z,5.00
2022-11-14T08:16:12.423Z,5.00
2022-11-14T08:18:41.877Z,5.00
2022-11-14T08:21:09.943Z,5.10
2022-11-14T08:23:38.921Z,5.10
2022-11-14T08:26:07.145Z,5.10
2022-11-14T08:28:35.297Z,5.20
2022-11-14T08:31:04.339Z,5.20
2022-11-14T08:33:33.936Z,5.20
2022-11-14T08:36:02.687Z,5.30
2022-11-14T08:38:32.408Z,5.30
2022-11-14T08:41:01.033Z,5.40
2022-11-14T08:43:29.329Z,5.40
2022-11-14T08:46:01.965Z,5.30
2022-11-14T08:48:31.273Z,5.40
2022-11-14T08:51:03.393Z,5.40
2022-11-14T08:53:32.045Z,5.50
2022-11-14T08:56:00.258Z,5.40
2022-11-14T08:58:29.259Z,5.50
2022-11-14T09:01:00.600Z,5.50
2022-11-14T09:03:28.805Z,5.60
2022-11-14T09:05:57.188Z,5.60
2022-11-14T09:08:27.322Z,5.70
2022-11-14T09:10:55.881Z,5.70
2022-11-14T09:13:23.917Z,5.70
2022-11-14T09:15:52.154Z,5.80
2022-11-14T09:18:20.290Z,5.80
2022-11-14T09:20:48.372Z,5.90
2022-11-14T09:23:16.468Z,5.80
2022-11-14T09:25:46.176Z,5.90
2022-11-14T09:28:14.284Z,5.90
2022-11-14T09:30:42.849Z,5.90
2022-11-14T09:33:12.059Z,6.00
2022-11-14T09:35:40.357Z,6.00
2022-11-14T09:38:11.450Z,6.00
2022-11-14T09:40:46.175Z,6.00
2022-11-14T09:43:26.499Z,6.00
2022-11-14T09:45:54.944Z,6.00
2022-11-14T09:48:25.965Z,6.00
2022-11-14T09:50:59.777Z,6.00
2022-11-14T09:53:32.365Z,6.00
2022-11-14T09:56:00.729Z,6.00
2022-11-14T09:58:30.475Z,6.00
2022-11-14T10:01:06.391Z,6.10
2022-11-14T10:03:43.669Z,6.10
2022-11-14T10:06:19.031Z,6.10
2022-11-14T10:08:50.676Z,6.10
2022-11-14T10:11:23.820Z,6.10
2022-11-14T10:14:08.017Z,6.10
2022-11-14T10:16:39.572Z,6.10
2022-11-14T10:19:15.874Z,6.10
2022-11-14T10:21:47.996Z,6.10
2022-11-14T10:24:24.474Z,6.10
2022-11-14T10:26:58.841Z,6.10
2022-11-14T10:29:41.775Z,6.10
2022-11-14T10:32:18.063Z,6.20
2022-11-14T10:34:48.730Z,6.20
2022-11-14T10:37:20.452Z,6.20
2022-11-14T10:39:50.463Z,6.20
2022-11-14T10:42:20.894Z,6.20
2022-11-14T10:44:52.315Z,6.20
2022-11-14T10:47:22.748Z,6.30
2022-11-14T10:49:56.400Z,6.30
2022-11-14T10:52:27.688Z,6.30
2022-11-14T10:54:58.048Z,6.30
2022-11-14T10:57:26.166Z,6.30
2022-11-14T10:59:56.666Z,6.30
2022-11-14T11:02:24.735Z,6.30
2022-11-14T11:04:53.053Z,6.40
2022-11-14T11:07:40.435Z,6.40
2022-11-14T11:10:37.658Z,6.40
2022-11-14T11:13:06.070Z,6.40
2022-11-14T11:15:41.150Z,6.40
2022-11-14T11:18:25.768Z,6.40
2022-11-14T11:21:03.442Z,6.40
2022-11-14T11:23:31.612Z,6.40
2022-11-14T11:26:01.177Z,6.40
2022-11-14T11:28:30.838Z,6.40
2022-11-14T11:31:01.248Z,6.40
2022-11-14T11:33:30.708Z,6.40
2022-11-14T11:36:01.750Z,6.50
2022-11-14T11:38:31.181Z,6.40
2022-11-14T11:41:01.696Z,6.40
2022-11-14T11:43:39.521Z,6.50
2022-11-14T11:46:12.934Z,6.50
2022-11-14T11:48:41.849Z,6.50
2022-11-14T11:51:15.084Z,6.50
2022-11-14T11:53:45.143Z,6.50
2022-11-14T11:56:14.429Z,6.50
2022-11-14T11:58:45.658Z,6.40
2022-11-14T12:01:15.933Z,6.50
2022-11-14T12:03:47.010Z,6.50
2022-11-14T12:06:16.838Z,6.50
2022-11-14T12:08:48.997Z,6.50
2022-11-14T12:11:21.236Z,6.50
2022-11-14T12:13:58.936Z,6.50
2022-11-14T12:16:37.681Z,6.50
2022-11-14T12:19:22.143Z,6.60
2022-11-14T12:22:04.499Z,6.50
2022-11-14T12:24:50.056Z,6.60
2022-11-14T12:27:23.115Z,6.50
2022-11-14T12:29:58.962Z,6.50
2022-11-14T12:32:35.302Z,6.50
2022-11-14T12:35:06.905Z,6.50
2022-11-14T12:37:37.080Z,6.50
2022-11-14T12:40:06.536Z,6.50
2022-11-14T12:42:35.489Z,6.50
2022-11-14T12:45:03.597Z,6.50
2022-11-14T12:47:33.103Z,6.50
2022-11-14T12:50:02.151Z,6.50
2022-11-14T12:52:48.867Z,6.50
2022-11-14T12:55:35.747Z,6.50
2022-11-14T12:58:07.602Z,6.60
2022-11-14T13:00:36.890Z,6.50
2022-11-14T13:03:28.041Z,6.50
2022-11-14T13:05:58.979Z,6.50
2022-11-14T13:08:39.916Z,6.50
2022-11-14T13:11:46.729Z,6.50
2022-11-14T13:14:32.103Z,6.60
2022-11-14T13:17:27.936Z,6.60
2022-11-14T13:20:15.124Z,6.50
2022-11-14T13:22:43.826Z,6.60
2022-11-14T13:25:19.469Z,6.60
2022-11-14T13:31:06.283Z,6.50
2022-11-14T13:33:43.813Z,6.50
2022-11-14T13:36:21.025Z,6.50
2022-11-14T13:39:19.017Z,6.60
2022-11-14T13:42:02.944Z,6.60
2022-11-14T13:44:48.969Z,6.50
2022-11-14T13:47:22.645Z,6.50
2022-11-14T13:49:55.507Z,6.60
2022-11-14T13:52:28.364Z,6.60
2022-11-14T13:55:00.039Z,6.50
2022-11-14T13:57:32.807Z,6.50
2022-11-14T14:00:07.395Z,6.50
2022-11-14T14:02:46.151Z,6.50
2022-11-14T14:05:20.967Z,6.50
2022-11-14T14:07:59.591Z,6.60
2022-11-14T14:10:33.632Z,6.60
2022-11-14T14:13:08.475Z,6.50
2022-11-14T14:15:40.625Z,6.50
2022-11-14T14:18:15.286Z,6.50
2022-11-14T14:20:46.601Z,6.50
2022-11-14T14:23:22.317Z,6.50
2022-11-14T14:25:58.787Z,6.50
2022-11-14T14:28:33.412Z,6.50
2022-11-14T14:31:02.264Z,6.50
2022-11-14T14:33:43.018Z,6.50
2022-11-14T14:36:21.104Z,6.50
2022-11-14T14:38:51.219Z,6.50
2022-11-14T14:41:21.475Z,6.50
2022-11-14T14:43:54.668Z,6.50
2022-11-14T14:46:30.349Z,6.50
2022-11-14T14:48:59.412Z,6.50
2022-11-14T14:51:31.826Z,6.50
2022-11-14T14:54:01.673Z,6.50
2022-11-14T14:56:30.046Z,6.50
2022-11-14T14:58:58.098Z,6.50
2022-11-14T15:01:29.312Z,6.50
2022-11-14T15:03:59.281Z,6.50
2022-11-14T15:06:33.967Z,6.40
2022-11-14T15:09:09.067Z,6.40
2022-11-14T15:11:37.891Z,6.40
2022-11-14T15:14:06.373Z,6.50
2022-11-14T15:16:34.661Z,6.50
2022-11-14T15:19:03.002Z,6.40
2022-11-14T15:21:31.763Z,6.50
2022-11-14T15:24:01.048Z,6.40
2022-11-14T15:26:31.249Z,6.50
2022-11-14T15:29:12.581Z,6.50
2022-11-14T15:31:45.728Z,6.50
2022-11-14T15:34:24.385Z,6.50
2022-11-14T15:37:08.597Z,6.40
2022-11-14T15:39:36.729Z,6.50
2022-11-14T15:42:15.507Z,6.50
2022-11-14T15:44:43.616Z,6.50
2022-11-14T15:47:13.167Z,6.50
2022-11-14T15:49:41.270Z,6.50
2022-11-14T15:52:18.702Z,6.50
2022-11-14T15:54:46.770Z,6.40
2022-11-14T15:57:16.974Z,6.50
2022-11-14T15:59:45.228Z,6.50
2022-11-14T16:02:16.055Z,6.50
2022-11-14T16:04:47.890Z,6.50
2022-11-14T16:07:17.308Z,6.50
2022-11-14T16:09:45.806Z,6.50
2022-11-14T16:12:13.922Z,6.50
2022-11-14T16:14:43.809Z,6.50
2022-11-14T16:17:16.122Z,6.50
2022-11-14T16:19:44.543Z,6.50
2022-11-14T16:22:13.857Z,6.50
2022-11-14T16:24:42.082Z,6.50
2022-11-14T16:27:10.261Z,6.50
2022-11-14T16:29:38.347Z,6.50
2022-11-14T16:32:10.573Z,6.50
2022-11-14T16:34:38.619Z,6.50
2022-11-14T16:37:06.753Z,6.40
2022-11-14T16:39:34.809Z,6.50
2022-11-14T16:42:03.710Z,6.50
2022-11-14T16:44:35.869Z,6.50
2022-11-14T16:47:10.023Z,6.40
2022-11-14T16:49:38.250Z,6.50
2022-11-14T16:52:08.725Z,6.50
2022-11-14T16:54:36.919Z,6.50
2022-11-14T16:57:05.211Z,6.50
2022-11-14T16:59:33.285Z,6.50
2022-11-14T17:02:01.933Z,6.50
2022-11-14T17:04:31.646Z,6.50
2022-11-14T17:06:59.850Z,6.50
2022-11-14T17:09:28.053Z,6.50
2022-11-14T17:11:56.349Z,6.50
2022-11-14T17:14:24.431Z,6.50
2022-11-14T17:16:52.603Z,6.50
2022-11-14T17:19:20.648Z,6.40
2022-11-14T17:21:50.098Z,6.50
2022-11-14T17:24:18.401Z,6.40
2022-11-14T17:26:50.749Z,6.40
2022-11-14T17:29:18.885Z,6.40
2022-11-14T17:31:47.368Z,6.40
2022-11-14T17:34:15.592Z,6.40
2022-11-14T17:36:43.739Z,6.40
2022-11-14T17:39:13.229Z,6.40
2022-11-14T17:41:41.497Z,6.40
2022-11-14T17:44:12.352Z,6.40
2022-11-14T17:46:40.452Z,6.40
2022-11-14T17:49:08.719Z,6.40
2022-11-14T17:51:36.856Z,6.40
2022-11-14T17:54:06.501Z,6.30
2022-11-14T17:56:38.912Z,6.30
2022-11-14T17:59:09.496Z,6.30
2022-11-14T18:01:37.576Z,6.30
2022-11-14T18:04:06.692Z,6.30
2022-11-14T18:06:34.971Z,6.30
2022-11-14T18:09:05.159Z,6.30
2022-11-14T18:11:33.536Z,6.30
2022-11-14T18:14:03.200Z,6.20
2022-11-14T18:16:50.461Z,6.20
2022-11-14T18:19:19.292Z,6.20
2022-11-14T18:21:53.324Z,6.20
2022-11-14T18:24:23.737Z,6.20
2022-11-14T18:26:51.967Z,6.20
2022-11-14T18:29:22.498Z,6.20
2022-11-14T18:31:50.880Z,6.20
2022-11-14T18:34:19.676Z,6.10
2022-11-14T18:36:47.764Z,6.20
2022-11-14T18:39:15.866Z,6.20
2022-11-14T18:41:44.053Z,6.10
2022-11-14T18:44:12.162Z,6.10
2022-11-14T18:46:41.764Z,6.10
2022-11-14T18:49:10.001Z,6.10
2022-11-14T18:51:42.283Z,6.00
2022-11-14T18:54:12.308Z,6.00
2022-11-14T18:56:40.655Z,6.00
2022-11-14T18:59:08.955Z,6.10
2022-11-14T19:01:37.066Z,6.00
2022-11-14T19:04:07.541Z,6.00
2022-11-14T19:06:37.601Z,6.00
2022-11-14T19:09:10.884Z,6.00
2022-11-14T19:11:56.858Z,6.00
2022-11-14T19:14:25.099Z,6.00
2022-11-14T19:16:53.133Z,6.00
2022-11-14T19:19:22.757Z,6.00
2022-11-14T19:21:51.403Z,6.00
2022-11-14T19:24:20.206Z,6.00
2022-11-14T19:26:48.338Z,6.00
2022-11-14T19:29:16.552Z,6.00
2022-11-14T19:31:44.829Z,6.00
2022-11-14T19:34:12.966Z,5.90
2022-11-14T19:36:59.472Z,5.90
2022-11-14T19:39:28.336Z,5.90
2022-11-14T19:41:56.397Z,5.90
2022-11-14T19:44:24.448Z,5.90
2022-11-14T19:46:52.506Z,5.90
2022-11-14T19:49:20.666Z,5.90
2022-11-14T19:51:50.306Z,5.90
2022-11-14T19:54:18.540Z,5.90
2022-11-14T19:56:46.706Z,5.90
2022-11-14T19:59:17.031Z,5.90
2022-11-14T20:01:48.251Z,5.90
2022-11-14T20:04:16.591Z,5.90
2022-11-14T20:06:44.784Z,5.90
2022-11-14T20:09:14.446Z,5.90
2022-11-14T20:11:42.623Z,5.90
2022-11-14T20:14:11.347Z,5.90
2022-11-14T20:16:39.397Z,5.80
2022-11-14T20:19:07.561Z,5.80
2022-11-14T20:21:35.867Z,5.90
2022-11-14T20:24:04.005Z,5.80
2022-11-14T20:26:33.512Z,5.80
2022-11-14T20:29:01.564Z,5.80
2022-11-14T20:31:30.829Z,5.80
2022-11-14T20:33:59.163Z,5.90
2022-11-14T20:36:35.362Z,5.80
2022-11-14T20:39:16.222Z,5.80
2022-11-14T20:41:48.432Z,5.70
2022-11-14T20:44:16.758Z,5.70
2022-11-14T20:46:44.852Z,5.70
2022-11-14T20:49:23.360Z,5.70
2022-11-14T20:51:51.579Z,5.70
2022-11-14T20:54:19.682Z,5.70
2022-11-14T20:56:49.099Z,5.60
2022-11-14T20:59:17.397Z,5.70
2022-11-14T21:01:45.463Z,5.70
2022-11-14T21:04:13.645Z,5.70
2022-11-14T21:06:41.897Z,5.60
2022-11-14T21:09:10.952Z,5.60
2022-11-14T21:11:39.018Z,5.60
2022-11-14T21:14:09.394Z,5.60
2022-11-14T21:16:38.775Z,5.50
2022-11-14T21:19:08.341Z,5.50
2022-11-14T21:21:36.940Z,5.50
2022-11-14T21:24:08.205Z,5.40
2022-11-14T21:26:38.165Z,5.40
2022-11-14T21:29:07.692Z,5.50
2022-11-14T21:31:38.018Z,5.50
2022-11-14T21:34:07.653Z,5.50
2022-11-14T21:36:51.216Z,5.50
2022-11-14T21:39:19.474Z,5.50
2022-11-14T21:41:49.372Z,5.50
2022-11-14T21:44:18.932Z,5.50
2022-11-14T21:46:49.699Z,5.40
2022-11-14T21:49:17.935Z,5.40
2022-11-14T21:51:46.061Z,5.40
2022-11-14T21:54:14.175Z,5.40
2022-11-14T21:56:42.405Z,5.30
2022-11-14T21:59:18.465Z,5.20
2022-11-14T22:02:04.671Z,5.30
2022-11-14T22:04:34.433Z,5.30
2022-11-14T22:07:03.073Z,5.20
2022-11-14T22:09:31.549Z,5.20
2022-11-14T22:11:59.870Z,5.30
2022-11-14T22:14:28.169Z,5.20
2022-11-14T22:16:56.317Z,5.20
2022-11-14T22:19:26.538Z,5.30
2022-11-14T22:21:56.141Z,5.10
2022-11-14T22:24:27.403Z,5.10
2022-11-14T22:26:55.743Z,5.20
2022-11-14T22:29:24.196Z,5.20
2022-11-14T22:31:57.861Z,5.10
2022-11-14T22:34:25.912Z,5.20
2022-11-14T22:36:55.475Z,5.20
2022-11-14T22:39:23.724Z,5.20
2022-11-14T22:41:51.824Z,5.20
2022-11-14T22:44:20.029Z,5.10
2022-11-14T22:46:48.278Z,5.10
2022-11-14T22:49:20.892Z,5.10
2022-11-14T22:51:49.501Z,5.10
2022-11-14T22:54:20.725Z,5.10
2022-11-14T22:56:49.034Z,5.20
2022-11-14T22:59:17.136Z,5.20
2022-11-14T23:01:45.296Z,5.20
2022-11-14T23:04:13.344Z,5.10
2022-11-14T23:06:41.450Z,5.00
2022-11-14T23:09:09.779Z,5.10
2022-11-14T23:11:40.433Z,5.10
2022-11-14T23:14:08.485Z,5.10
2022-11-14T23:16:36.753Z,5.10
2022-11-14T23:19:05.376Z,5.10
2022-11-14T23:21:35.447Z,5.10
2022-11-14T23:24:04.210Z,5.10
2022-11-14T23:26:33.091Z,5.10
2022-11-14T23:29:02.633Z,5.10
2022-11-14T23:31:30.704Z,5.10
2022-11-14T23:33:59.036Z,5.10
2022-11-14T23:36:27.286Z,5.10
2022-11-14T23:38:55.569Z,5.00
2022-11-14T23:41:25.497Z,5.10
2022-11-14T23:43:56.845Z,5.00
2022-11-14T23:46:26.815Z,5.10
2022-11-14T23:48:57.284Z,5.00
2022-11-14T23:51:25.429Z,5.00
2022-11-14T23:53:53.645Z,5.00
2022-11-14T23:56:24.692Z,5.10
2022-11-14T23:58:55.472Z,5.10
